Time;durP1;ratioP1;P1;durP2;ratioP2;P2;SDS_P1;SDS_P2;PMS_P1;PMS_P2;Temp;Humidity;BMP_temperature;BMP_pressure;BME280_temperature;BME280_humidity;BME280_pressure;Samples;Min_cycle;Max_cycle;Signal;HPM_P1;HPM_P2
2021/08/09 00:00:30;;;;;;;0.60;0.60;;;;;;;15.93;99.23;100689.06;5012677;28;20029;-68
2021/08/09 00:02:56;;;;;;;0.43;0.35;;;;;;;15.89;99.00;100691.03;5030643;28;20409;-68
2021/08/09 00:05:22;;;;;;;1.27;0.70;;;;;;;16.08;99.10;100690.59;5031280;28;20037;-68
2021/08/09 00:07:47;;;;;;;0.40;0.30;;;;;;;16.11;97.84;100695.25;5031887;28;20056;-69
2021/08/09 00:10:13;;;;;;;0.35;0.20;;;;;;;16.04;98.95;100690.63;5020186;28;20034;-69
2021/08/09 00:12:38;;;;;;;0.45;0.38;;;;;;;15.67;99.74;100684.81;5025554;28;20608;-68
2021/08/09 00:15:04;;;;;;;0.40;0.40;;;;;;;15.96;99.68;100693.72;5031225;28;20029;-69
2021/08/09 00:17:30;;;;;;;0.73;0.38;;;;;;;15.95;99.88;100687.50;5025829;28;20430;-68
2021/08/09 00:19:55;;;;;;;0.28;0.28;;;;;;;16.10;98.59;100686.31;5029290;28;20038;-68
2021/08/09 00:22:21;;;;;;;0.80;0.30;;;;;;;16.17;99.29;100691.75;5033813;28;20059;-68
2021/08/09 00:24:46;;;;;;;0.50;0.40;;;;;;;16.14;98.45;100702.63;5030664;28;20038;-68
2021/08/09 00:27:11;;;;;;;0.57;0.50;;;;;;;16.04;98.74;100693.34;5030982;28;20568;-68
2021/08/09 00:29:37;;;;;;;0.52;0.47;;;;;;;16.16;98.86;100692.91;5012130;28;20037;-69
2021/08/09 00:32:03;;;;;;;0.40;0.40;;;;;;;15.79;99.38;100689.06;5011269;28;20033;-68
2021/08/09 00:34:29;;;;;;;0.75;0.40;;;;;;;15.94;100.00;100694.13;5019517;28;20060;-69
2021/08/09 00:36:54;;;;;;;0.63;0.60;;;;;;;15.76;100.00;100692.56;5021137;28;20070;-69
2021/08/09 00:39:20;;;;;;;0.93;0.50;;;;;;;15.60;100.00;100700.31;5000449;28;20036;-68
2021/08/09 00:41:46;;;;;;;0.30;0.30;;;;;;;15.68;100.00;100697.22;5018053;28;20109;-68
2021/08/09 00:44:12;;;;;;;0.45;0.32;;;;;;;15.73;100.00;100701.50;5011827;28;20397;-69
2021/08/09 00:46:38;;;;;;;0.50;0.40;;;;;;;16.03;100.00;100697.19;5034374;28;20029;-69
2021/08/09 00:49:04;;;;;;;0.50;0.40;;;;;;;15.68;100.00;100697.22;5022857;28;20164;-69
2021/08/09 00:51:31;;;;;;;0.30;0.20;;;;;;;15.68;100.00;100688.31;5012722;28;20510;-68
2021/08/09 00:54:01;;;;;;;0.55;0.50;;;;;;;15.71;100.00;100699.16;5012865;28;20080;-68
2021/08/09 00:56:27;;;;;;;0.55;0.55;;;;;;;15.81;100.00;100701.13;5007971;28;20072;-68
2021/08/09 00:58:54;;;;;;;0.30;0.30;;;;;;;15.52;100.00;100698.75;5028708;28;20049;-69
2021/08/09 01:01:21;;;;;;;0.32;0.30;;;;;;;15.51;100.00;100699.91;5011837;28;20025;-68
2021/08/09 01:03:50;;;;;;;0.65;0.45;;;;;;;15.52;100.00;100696.84;5010987;28;20498;-68
2021/08/09 01:06:17;;;;;;;0.38;0.38;;;;;;;15.57;100.00;100709.22;5009243;28;20137;-68
2021/08/09 01:08:53;;;;;;;0.60;0.50;;;;;;;15.62;100.00;100701.47;5027454;28;20045;-68
2021/08/09 01:11:35;;;;;;;0.35;0.30;;;;;;;15.76;99.77;100706.91;5011845;28;20060;-68
2021/08/09 01:14:28;;;;;;;0.30;0.30;;;;;;;15.45;100.00;100710.38;5010182;28;20026;-68
2021/08/09 01:16:55;;;;;;;0.30;0.30;;;;;;;15.39;100.00;100703.75;5012497;28;20076;-68
2021/08/09 01:19:23;;;;;;;0.30;0.30;;;;;;;15.33;100.00;100705.28;5012433;28;20037;-68
2021/08/09 01:21:53;;;;;;;0.22;0.20;;;;;;;15.51;100.00;100705.34;5010117;28;20497;-68
2021/08/09 01:24:30;;;;;;;0.35;0.30;;;;;;;15.59;100.00;100690.63;5024939;28;20026;-68
2021/08/09 01:27:06;;;;;;;0.35;0.30;;;;;;;15.30;100.00;100696.00;5009784;28;20137;-67
2021/08/09 01:29:40;;;;;;;0.77;0.45;;;;;;;15.50;100.00;100699.16;5029867;28;20084;-68
2021/08/09 01:32:06;;;;;;;0.38;0.25;;;;;;;15.54;100.00;100693.72;5013409;28;20072;-68
2021/08/09 01:34:32;;;;;;;0.32;0.30;;;;;;;15.54;100.00;100694.50;5012737;28;20033;-69
2021/08/09 01:37:00;;;;;;;0.43;0.32;;;;;;;15.50;100.00;100691.00;5013302;28;20520;-68
2021/08/09 01:39:30;;;;;;;;;;;;;;;15.27;100.00;100696.75;5018686;28;20039;-68
2021/08/09 01:41:56;;;;;;;0.22;0.22;;;;;;;15.39;100.00;100698.31;5011521;28;20016;-69
2021/08/09 01:44:24;;;;;;;0.25;0.25;;;;;;;15.55;100.00;100701.47;5014919;28;20095;-68
2021/08/09 01:46:51;;;;;;;0.57;0.50;;;;;;;15.74;100.00;100694.88;5016615;28;20301;-69
2021/08/09 01:49:19;;;;;;;0.55;0.55;;;;;;;15.65;100.00;100711.56;5010408;28;20394;-68
2021/08/09 01:51:45;;;;;;;0.30;0.30;;;;;;;15.55;100.00;100716.97;5018156;28;20041;-68
2021/08/09 01:54:12;;;;;;;0.30;0.30;;;;;;;15.66;100.00;100712.34;5015775;28;20055;-69
2021/08/09 01:56:40;;;;;;;0.32;0.22;;;;;;;15.60;100.00;100708.47;5014600;28;20116;-68
2021/08/09 01:59:06;;;;;;;0.50;0.50;;;;;;;15.68;100.00;100701.88;5004500;28;20437;-68
2021/08/09 02:01:33;;;;;;;0.63;0.50;;;;;;;15.40;100.00;100710.75;5014829;28;20596;-68
2021/08/09 02:03:58;;;;;;;0.70;0.50;;;;;;;15.72;100.00;100711.56;5015811;28;20044;-68
2021/08/09 02:06:24;;;;;;;0.68;0.40;;;;;;;15.70;100.00;100713.91;5020044;28;20112;-68
2021/08/09 02:08:50;;;;;;;0.28;0.28;;;;;;;15.68;100.00;100705.34;5023361;28;20120;-69
2021/08/09 02:11:21;;;;;;;0.45;0.45;;;;;;;15.74;100.00;100709.25;5033433;28;20521;-68
2021/08/09 02:13:53;;;;;;;0.50;0.30;;;;;;;15.75;100.00;100712.75;5032170;28;20032;-69
2021/08/09 02:16:38;;;;;;;0.40;0.30;;;;;;;15.75;100.00;100715.44;5014575;28;20041;-68
2021/08/09 02:19:21;;;;;;;0.32;0.32;;;;;;;15.71;100.00;100717.38;5015231;28;20045;-68
2021/08/09 02:21:59;;;;;;;0.40;0.30;;;;;;;15.55;100.00;100723.19;5015858;28;20510;-68
2021/08/09 02:24:32;;;;;;;0.30;0.30;;;;;;;15.55;100.00;100728.63;5026504;28;20033;-68
2021/08/09 02:27:10;;;;;;;0.30;0.30;;;;;;;15.29;100.00;100726.25;5023207;28;20108;-68
2021/08/09 02:29:40;;;;;;;0.40;0.38;;;;;;;15.65;100.00;100722.44;5015721;28;20034;-68
2021/08/09 02:32:08;;;;;;;0.60;0.40;;;;;;;15.55;100.00;100730.56;5024126;28;20482;-68
2021/08/09 02:34:37;;;;;;;0.32;0.30;;;;;;;15.39;100.00;100731.66;5013550;28;20029;-68
2021/08/09 02:37:08;;;;;;;0.65;0.40;;;;;;;15.56;100.00;100734.84;5014023;28;20105;-68
2021/08/09 02:39:37;;;;;;;0.30;0.30;;;;;;;15.50;100.00;100731.72;5015213;28;20032;-69
2021/08/09 02:42:03;;;;;;;0.30;0.30;;;;;;;15.51;100.00;100737.91;5010180;28;20030;-69
2021/08/09 02:44:29;;;;;;;0.63;0.38;;;;;;;15.36;100.00;100743.31;5023581;28;20626;-69
2021/08/09 02:46:58;;;;;;;0.60;0.45;;;;;;;15.22;100.00;100745.19;5015289;28;20029;-68
2021/08/09 02:49:23;;;;;;;0.57;0.50;;;;;;;15.44;100.00;100743.34;5030694;28;20071;-68
2021/08/09 02:51:49;;;;;;;0.25;0.25;;;;;;;15.35;100.00;100739.03;4996382;28;20053;-68
2021/08/09 02:54:20;;;;;;;0.57;0.32;;;;;;;15.39;100.00;100742.53;4998125;28;20127;-69
2021/08/09 02:56:47;;;;;;;0.45;0.43;;;;;;;15.59;100.00;100745.69;5030656;28;20033;-68
2021/08/09 02:59:14;;;;;;;0.40;0.40;;;;;;;15.80;100.00;100743.00;5033335;28;20147;-68
2021/08/09 03:01:41;;;;;;;0.68;0.40;;;;;;;15.63;100.00;100735.63;5014015;28;20033;-68
2021/08/09 03:04:10;;;;;;;0.52;0.43;;;;;;;15.43;100.00;100741.81;5014668;28;20513;-68
2021/08/09 03:06:37;;;;;;;0.63;0.50;;;;;;;15.43;100.00;100747.22;4999581;28;20033;-68
2021/08/09 03:09:05;;;;;;;0.65;0.30;;;;;;;15.51;100.00;100746.84;5018175;28;20034;-68
2021/08/09 03:11:33;;;;;;;0.45;0.32;;;;;;;15.63;100.00;100751.91;5020300;28;20515;-68
2021/08/09 03:13:59;;;;;;;0.50;0.38;;;;;;;15.39;100.00;100736.31;5011188;28;20155;-69
2021/08/09 03:16:24;;;;;;;0.52;0.30;;;;;;;15.32;100.00;100745.22;5021524;28;20438;-68
2021/08/09 03:18:50;;;;;;;0.28;0.28;;;;;;;15.33;100.00;100737.84;5032131;28;20099;-68
2021/08/09 03:21:16;;;;;;;0.20;0.20;;;;;;;15.53;100.00;100738.31;5005309;28;20044;-68
2021/08/09 03:23:41;;;;;;;0.30;0.20;;;;;;;15.38;100.00;100748.34;5029699;28;20028;-68
2021/08/09 03:26:07;;;;;;;1.25;0.35;;;;;;;15.56;100.00;100746.47;5022051;28;20033;-69
2021/08/09 03:28:33;;;;;;;0.70;0.30;;;;;;;15.57;100.00;100733.66;5015377;28;20043;-69
2021/08/09 03:31:00;;;;;;;0.63;0.45;;;;;;;15.70;100.00;100743.00;5031063;28;20156;-68
2021/08/09 03:33:25;;;;;;;0.40;0.30;;;;;;;15.56;100.00;100746.47;5011310;28;20025;-68
2021/08/09 03:35:51;;;;;;;0.38;0.30;;;;;;;15.22;100.00;100743.25;5012481;28;20033;-68
2021/08/09 03:38:16;;;;;;;0.28;0.28;;;;;;;15.23;100.00;100738.63;5020569;28;20096;-68
2021/08/09 03:40:42;;;;;;;0.50;0.50;;;;;;;15.31;100.00;100740.94;5027307;28;20490;-68
2021/08/09 03:43:07;;;;;;;0.68;0.43;;;;;;;15.32;100.00;100737.09;5000434;28;20021;-69
2021/08/09 03:45:33;;;;;;;1.15;0.60;;;;;;;15.29;100.00;100737.09;5008491;28;20494;-68
2021/08/09 03:47:58;;;;;;;0.45;0.25;;;;;;;15.25;100.00;100739.00;5021337;28;20079;-68
2021/08/09 03:50:24;;;;;;;0.90;0.70;;;;;;;15.45;100.00;100739.47;5004885;28;20499;-67
2021/08/09 03:52:53;;;;;;;1.20;0.40;;;;;;;15.51;100.00;100735.97;5009789;28;20040;-68
2021/08/09 03:55:19;;;;;;;0.60;0.30;;;;;;;15.44;100.00;100743.34;5005598;28;20025;-67
2021/08/09 03:57:45;;;;;;;0.73;0.38;;;;;;;15.64;100.00;100745.31;5025410;28;20128;-68
2021/08/09 04:00:12;;;;;;;0.38;0.38;;;;;;;15.41;100.00;100746.81;5030251;28;20464;-68
2021/08/09 04:02:42;;;;;;;0.35;0.35;;;;;;;15.33;100.00;100746.00;5012624;28;20039;-68
2021/08/09 04:05:15;;;;;;;0.57;0.45;;;;;;;15.30;100.00;100755.69;5018655;28;20564;-68
2021/08/09 04:07:40;;;;;;;0.60;0.50;;;;;;;15.42;100.00;100756.53;5000745;28;20037;-68
2021/08/09 04:10:07;;;;;;;0.30;0.30;;;;;;;15.36;100.00;100756.88;5013001;28;20037;-69
2021/08/09 04:12:33;;;;;;;0.52;0.47;;;;;;;15.09;100.00;100755.63;5009375;28;20079;-68
2021/08/09 04:14:58;;;;;;;0.32;0.32;;;;;;;15.17;100.00;100761.84;5002975;28;20038;-68
2021/08/09 04:17:24;;;;;;;0.28;0.22;;;;;;;15.15;100.00;100762.25;4999142;28;20453;-68
2021/08/09 04:19:49;;;;;;;0.40;0.40;;;;;;;15.41;100.00;100765.81;5020818;28;20486;-68
2021/08/09 04:22:15;;;;;;;0.30;0.30;;;;;;;15.42;100.00;100772.81;5013077;28;20401;-68
2021/08/09 04:24:40;;;;;;;0.63;0.55;;;;;;;15.18;100.00;100763.41;5013202;28;20037;-68
2021/08/09 04:27:06;;;;;;;0.63;0.40;;;;;;;15.34;100.00;100770.06;5012464;28;20033;-68
2021/08/09 04:29:32;;;;;;;0.52;0.45;;;;;;;15.35;100.00;100766.16;5016800;28;20064;-68
2021/08/09 04:31:58;;;;;;;0.93;0.65;;;;;;;15.53;100.00;100771.66;5031236;28;20521;-69
2021/08/09 04:34:23;;;;;;;0.45;0.30;;;;;;;15.51;100.00;100768.56;5012532;28;20147;-68
2021/08/09 04:36:49;;;;;;;0.63;0.40;;;;;;;15.59;100.00;100778.28;5017813;28;20113;-68
2021/08/09 04:39:15;;;;;;;0.40;0.40;;;;;;;15.77;100.00;100772.88;5008559;28;20029;-68
2021/08/09 04:41:40;;;;;;;0.50;0.40;;;;;;;15.52;100.00;100775.56;5015795;28;20482;-68
2021/08/09 04:44:06;;;;;;;0.25;0.25;;;;;;;15.42;100.00;100773.59;5009927;28;20494;-69
2021/08/09 04:46:32;;;;;;;0.68;0.50;;;;;;;15.37;100.00;100779.34;5018901;28;20045;-68
2021/08/09 04:48:58;;;;;;;0.50;0.38;;;;;;;15.44;100.00;100778.63;5013059;28;20021;-68
2021/08/09 04:51:26;;;;;;;0.30;0.30;;;;;;;15.72;100.00;100778.66;5009641;28;20482;-68
2021/08/09 04:53:51;;;;;;;0.55;0.45;;;;;;;15.80;100.00;100780.22;5009660;28;20028;-69
2021/08/09 04:56:18;;;;;;;0.95;0.50;;;;;;;15.46;100.00;100785.22;4999330;28;20060;-67
2021/08/09 04:58:44;;;;;;;0.43;0.35;;;;;;;15.36;100.00;100780.53;5012884;28;20033;-68
2021/08/09 05:01:09;;;;;;;0.35;0.30;;;;;;;15.43;100.00;100785.97;5007045;28;20510;-68
2021/08/09 05:03:37;;;;;;;0.30;0.30;;;;;;;15.60;100.00;100784.50;5013670;28;20601;-69
2021/08/09 05:06:03;;;;;;;0.88;0.52;;;;;;;15.64;100.00;100790.72;5030674;28;20059;-68
2021/08/09 05:08:29;;;;;;;1.20;1.10;;;;;;;15.72;100.00;100793.03;5012010;28;20041;-68
2021/08/09 05:10:54;;;;;;;0.40;0.32;;;;;;;15.69;100.00;100799.25;5023689;28;20040;-69
2021/08/09 05:13:21;;;;;;;0.40;0.38;;;;;;;15.39;100.00;100796.03;5016371;28;20029;-68
2021/08/09 05:15:47;;;;;;;0.50;0.38;;;;;;;15.50;100.00;100801.53;5026700;28;20389;-69
2021/08/09 05:18:13;;;;;;;0.30;0.30;;;;;;;15.56;100.00;100800.78;5019741;28;20541;-68
2021/08/09 05:20:38;;;;;;;0.85;0.40;;;;;;;15.59;100.00;100799.22;5009566;28;20053;-68
2021/08/09 05:23:04;;;;;;;0.45;0.40;;;;;;;15.77;100.00;100800.81;5010568;28;20528;-68
2021/08/09 05:25:31;;;;;;;0.22;0.22;;;;;;;15.66;100.00;100804.69;5029171;28;20073;-68
2021/08/09 05:27:57;;;;;;;0.43;0.30;;;;;;;16.05;100.00;100806.25;5027506;28;20487;-68
2021/08/09 05:30:23;;;;;;;0.43;0.28;;;;;;;16.07;100.00;100819.44;5005791;28;20032;-68
2021/08/09 05:32:48;;;;;;;0.93;0.40;;;;;;;16.58;99.92;100805.47;5000553;28;20116;-68
2021/08/09 05:35:13;;;;;;;0.55;0.30;;;;;;;17.27;95.16;100811.09;5011672;28;20063;-68
2021/08/09 05:37:39;;;;;;;1.42;0.50;;;;;;;18.03;91.37;100811.84;5012450;28;20064;-68
2021/08/09 05:40:08;;;;;;;0.40;0.40;;;;;;;18.79;88.03;100817.78;5023827;28;20083;-68
2021/08/09 05:42:35;;;;;;;0.82;0.50;;;;;;;19.03;84.92;100818.69;5010218;28;20037;-68
2021/08/09 05:45:03;;;;;;;0.20;0.20;;;;;;;19.65;84.01;100821.81;5013157;28;20447;-68
2021/08/09 05:47:28;;;;;;;0.70;0.38;;;;;;;19.53;81.51;100816.16;5012375;28;20021;-68
2021/08/09 05:49:55;;;;;;;0.47;0.30;;;;;;;19.52;81.48;100818.13;5011096;28;20033;-68
2021/08/09 05:52:23;;;;;;;0.30;0.22;;;;;;;19.74;80.66;100822.09;5012489;28;20033;-69
2021/08/09 05:55:00;;;;;;;0.43;0.30;;;;;;;19.93;81.14;100815.19;5012366;28;20406;-68
2021/08/09 05:57:25;;;;;;;0.38;0.38;;;;;;;20.14;80.07;100819.53;4997556;28;20030;-68
2021/08/09 05:59:51;;;;;;;0.50;0.40;;;;;;;19.94;79.95;100821.44;5008842;28;20026;-67
2021/08/09 06:02:18;;;;;;;4.28;0.30;;;;;;;20.12;79.52;100817.22;5007145;28;20112;-68
2021/08/09 06:04:43;;;;;;;0.32;0.30;;;;;;;20.34;79.18;100818.44;5021754;28;20132;-68
2021/08/09 06:07:13;;;;;;;0.30;0.30;;;;;;;20.29;78.64;100827.13;5017097;28;20034;-68
2021/08/09 06:09:43;;;;;;;0.43;0.30;;;;;;;20.52;78.75;100818.91;5010738;28;20030;-68
2021/08/09 06:12:09;;;;;;;0.88;0.20;;;;;;;20.34;77.35;100820.41;5026481;28;20120;-68
2021/08/09 06:14:34;;;;;;;0.30;0.30;;;;;;;20.25;79.44;100817.41;5006621;28;20116;-68
2021/08/09 06:17:00;;;;;;;0.50;0.40;;;;;;;20.37;78.62;100822.31;5005393;28;20065;-68
2021/08/09 06:19:27;;;;;;;1.00;0.30;;;;;;;20.53;78.24;100819.69;5000802;28;20112;-68
2021/08/09 06:21:53;;;;;;;0.52;0.52;;;;;;;20.29;79.11;100821.66;5025360;28;20025;-68
2021/08/09 06:24:21;;;;;;;0.57;0.40;;;;;;;20.23;79.19;100820.56;5010073;28;20032;-68
2021/08/09 06:26:48;;;;;;;0.45;0.30;;;;;;;20.20;78.76;100824.16;5013946;28;20505;-68
2021/08/09 06:29:14;;;;;;;0.47;0.30;;;;;;;20.16;80.25;100819.88;5012086;28;20034;-68
2021/08/09 06:31:40;;;;;;;0.60;0.30;;;;;;;20.24;79.04;100821.34;5010831;28;20045;-68
2021/08/09 06:34:06;;;;;;;0.98;0.90;;;;;;;20.07;81.42;100825.13;5006562;28;20025;-68
2021/08/09 06:36:35;;;;;;;1.00;0.60;;;;;;;19.89;81.02;100825.41;5003365;28;20029;-68
2021/08/09 06:39:00;;;;;;;0.88;0.30;;;;;;;19.70;82.09;100823.34;5013995;28;20098;-68
2021/08/09 06:41:32;;;;;;;0.50;0.20;;;;;;;19.96;81.60;100813.56;5012996;28;20149;-69
2021/08/09 06:44:16;;;;;;;1.50;0.50;;;;;;;20.18;81.73;100817.50;5019345;28;20048;-69
2021/08/09 06:46:42;;;;;;;0.82;0.30;;;;;;;20.28;81.65;100819.34;5012207;28;20029;-69
2021/08/09 06:49:08;;;;;;;0.40;0.25;;;;;;;20.16;80.54;100817.16;5032336;28;20056;-70
2021/08/09 06:51:34;;;;;;;0.30;0.30;;;;;;;20.07;79.65;100819.66;5013018;28;20295;-70
2021/08/09 06:54:00;;;;;;;0.35;0.30;;;;;;;19.93;80.26;100819.88;5008182;28;20029;-69
2021/08/09 06:56:26;;;;;;;1.55;0.30;;;;;;;20.04;80.81;100820.47;5019411;28;20486;-69
2021/08/09 06:58:53;;;;;;;0.35;0.28;;;;;;;19.85;81.39;100826.63;5006544;28;20032;-70
2021/08/09 07:01:18;;;;;;;0.32;0.28;;;;;;;19.80;82.58;100825.16;5011070;28;20030;-69
2021/08/09 07:03:46;;;;;;;0.30;0.28;;;;;;;19.52;84.30;100829.03;5011444;28;20059;-69
2021/08/09 07:06:21;;;;;;;0.25;0.22;;;;;;;19.57;84.14;100836.78;5013384;28;20109;-71
2021/08/09 07:08:49;;;;;;;0.88;0.25;;;;;;;19.45;84.72;100834.59;5010867;28;20029;-70
2021/08/09 07:11:14;;;;;;;0.30;0.30;;;;;;;19.42;84.71;100826.44;5004871;28;20032;-69
2021/08/09 07:13:40;;;;;;;0.30;0.20;;;;;;;19.53;84.69;100822.38;5013105;28;20033;-69
2021/08/09 07:16:05;;;;;;;0.35;0.32;;;;;;;19.27;85.61;100820.38;5012389;28;20414;-70
2021/08/09 07:18:33;;;;;;;0.60;0.40;;;;;;;19.25;85.22;100821.94;4992014;28;20040;-68
2021/08/09 07:20:59;;;;;;;0.35;0.22;;;;;;;19.19;85.63;100818.91;5012163;28;20048;-70
2021/08/09 07:23:25;;;;;;;0.30;0.30;;;;;;;19.03;87.26;100821.44;5001575;28;20052;-70
2021/08/09 07:25:51;;;;;;;0.70;0.43;;;;;;;18.99;87.12;100826.16;5002025;28;20062;-69
2021/08/09 07:28:18;;;;;;;0.30;0.30;;;;;;;18.92;86.69;100821.56;5001486;28;20033;-70
2021/08/09 07:30:43;;;;;;;0.32;0.32;;;;;;;19.19;87.08;100831.78;5010469;28;20036;-69
2021/08/09 07:33:09;;;;;;;1.45;0.30;;;;;;;19.09;85.68;100828.00;4997979;28;20389;-69
2021/08/09 07:35:35;;;;;;;3.10;0.40;;;;;;;18.88;88.13;100834.47;5007418;28;20202;-69
2021/08/09 07:38:00;;;;;;;0.50;0.40;;;;;;;19.18;88.10;100836.47;5010387;28;20033;-69
2021/08/09 07:40:26;;;;;;;0.52;0.38;;;;;;;19.19;86.59;100838.03;5028038;28;20033;-70
2021/08/09 07:42:57;;;;;;;0.50;0.30;;;;;;;19.37;86.68;100837.84;5006934;28;20154;-68
2021/08/09 07:45:23;;;;;;;0.60;0.60;;;;;;;19.14;85.59;100841.22;5013397;28;20037;-67
2021/08/09 07:47:53;;;;;;;0.50;0.40;;;;;;;19.12;86.08;100834.59;5019117;28;20048;-69
2021/08/09 07:50:19;;;;;;;0.70;0.50;;;;;;;19.26;86.22;100839.91;5010830;28;20451;-69
2021/08/09 07:52:46;;;;;;;1.70;0.50;;;;;;;19.26;86.68;100843.38;5009009;28;20029;-66
2021/08/09 07:55:13;;;;;;;0.40;0.40;;;;;;;19.58;85.19;100849.25;5010258;28;20022;-70
2021/08/09 07:57:38;;;;;;;0.47;0.40;;;;;;;19.44;85.51;100848.66;5011419;28;20083;-69
2021/08/09 08:00:05;;;;;;;0.77;0.40;;;;;;;19.81;84.41;100848.56;5011305;28;20079;-69
2021/08/09 08:02:42;;;;;;;0.20;0.20;;;;;;;19.86;85.67;100839.88;5023241;28;20418;-69
2021/08/09 08:05:12;;;;;;;0.77;0.30;;;;;;;19.63;84.08;100848.00;5012859;28;20505;-68
2021/08/09 08:07:38;;;;;;;0.60;0.60;;;;;;;19.92;84.81;100845.69;5001470;28;20029;-69
2021/08/09 08:10:04;;;;;;;0.65;0.47;;;;;;;19.85;83.81;100840.28;4999272;28;20120;-70
2021/08/09 08:12:31;;;;;;;0.68;0.50;;;;;;;19.91;84.15;100844.13;5014524;28;20563;-69
2021/08/09 08:14:57;;;;;;;0.35;0.32;;;;;;;19.86;83.64;100858.25;5010527;28;20083;-70
2021/08/09 08:17:24;;;;;;;0.95;0.52;;;;;;;20.28;84.77;100852.16;5009655;28;20029;-71
2021/08/09 08:19:51;;;;;;;0.75;0.32;;;;;;;20.48;83.50;100861.19;5009301;28;20067;-69
2021/08/09 08:22:17;;;;;;;0.30;0.30;;;;;;;20.58;82.09;100860.25;5010818;28;20030;-70
2021/08/09 08:24:43;;;;;;;0.65;0.40;;;;;;;20.95;82.00;100868.19;5015471;28;20087;-69
2021/08/09 08:27:09;;;;;;;1.17;0.52;;;;;;;20.92;80.90;100869.03;5009842;28;20033;-68
2021/08/09 08:29:34;;;;;;;0.28;0.20;;;;;;;20.59;80.88;100861.81;5008749;28;20029;-68
2021/08/09 08:32:02;;;;;;;1.05;0.30;;;;;;;20.73;80.99;100864.28;4989689;28;20948;-70
2021/08/09 08:34:27;;;;;;;0.50;0.32;;;;;;;20.92;81.52;100871.78;5014228;28;20109;-69
2021/08/09 08:36:54;;;;;;;0.30;0.30;;;;;;;21.02;80.95;100872.81;5005591;28;20398;-69
2021/08/09 08:39:21;;;;;;;0.40;0.40;;;;;;;20.75;79.68;100872.84;5011672;28;20033;-70
2021/08/09 08:41:47;;;;;;;0.75;0.52;;;;;;;21.04;79.38;100876.63;5008343;28;20055;-70
2021/08/09 08:44:18;;;;;;;1.25;0.40;;;;;;;21.06;78.21;100879.75;5006020;28;20133;-70
2021/08/09 08:46:46;;;;;;;1.23;0.98;;;;;;;20.99;77.26;100879.06;5013128;28;20029;-70
2021/08/09 08:49:14;;;;;;;0.52;0.30;;;;;;;21.30;79.20;100877.72;5007612;28;20035;-68
2021/08/09 08:51:46;;;;;;;0.50;0.38;;;;;;;21.63;77.86;100879.38;5009138;28;20034;-68
2021/08/09 08:54:12;;;;;;;0.90;0.30;;;;;;;21.85;77.24;100887.94;5007197;28;20144;-68
2021/08/09 08:56:40;;;;;;;0.98;0.40;;;;;;;21.96;76.13;100885.72;5024417;28;20102;-68
2021/08/09 08:59:07;;;;;;;0.50;0.40;;;;;;;21.86;74.67;100887.53;5024497;28;20041;-68
2021/08/09 09:01:38;;;;;;;0.28;0.28;;;;;;;21.84;78.51;100895.41;5024220;28;20502;-66
2021/08/09 09:04:28;;;;;;;1.33;0.88;;;;;;;21.95;75.98;100884.19;5027611;28;20038;-66
2021/08/09 09:07:12;;;;;;;1.20;0.30;;;;;;;22.04;74.61;100900.84;5006669;28;20037;-66
2021/08/09 09:09:39;;;;;;;0.52;0.30;;;;;;;21.93;74.52;100890.09;5007498;28;20030;-66
2021/08/09 09:12:16;;;;;;;0.55;0.40;;;;;;;21.88;74.23;100893.34;5027853;28;20494;-67
2021/08/09 09:14:43;;;;;;;0.40;0.20;;;;;;;21.97;74.11;100892.78;5023990;28;20041;-67
2021/08/09 09:17:08;;;;;;;0.75;0.35;;;;;;;22.47;72.21;100893.16;5027656;28;20034;-66
2021/08/09 09:19:43;;;;;;;0.55;0.20;;;;;;;22.28;71.98;100896.72;5027840;28;20036;-67
2021/08/09 09:22:18;;;;;;;0.43;0.43;;;;;;;22.60;74.56;100899.53;5022483;28;20107;-66
2021/08/09 09:24:49;;;;;;;0.30;0.25;;;;;;;22.36;71.33;100904.38;5026414;28;20212;-66
2021/08/09 09:27:28;;;;;;;0.93;0.40;;;;;;;21.88;71.59;100904.31;5027953;28;20041;-67
2021/08/09 09:29:53;;;;;;;0.20;0.20;;;;;;;21.96;70.29;100913.16;5027874;28;20086;-65
2021/08/09 09:32:21;;;;;;;0.32;0.30;;;;;;;22.16;69.77;100911.16;5016477;28;20439;-67
2021/08/09 09:34:54;;;;;;;0.20;0.20;;;;;;;22.33;68.53;100904.47;5028858;28;20029;-67
2021/08/09 09:37:28;;;;;;;0.20;0.20;;;;;;;22.45;69.10;100896.31;4994541;28;20033;-67
2021/08/09 09:40:12;;;;;;;0.17;0.17;;;;;;;22.84;70.29;100911.84;5026563;28;20554;-67
2021/08/09 09:42:39;;;;;;;0.50;0.30;;;;;;;22.93;65.66;100914.75;5026966;28;20461;-69
2021/08/09 09:45:23;;;;;;;0.60;0.35;;;;;;;22.99;64.26;100915.78;5027822;28;20061;-70
2021/08/09 09:48:08;;;;;;;0.30;0.13;;;;;;;22.91;64.35;100910.88;5020905;28;20025;-69
2021/08/09 09:50:37;;;;;;;0.40;0.30;;;;;;;22.97;62.56;100920.94;5010790;28;20029;-69
2021/08/09 09:53:22;;;;;;;0.60;0.50;;;;;;;23.52;64.31;100921.81;5024491;28;20037;-69
2021/08/09 09:55:55;;;;;;;0.28;0.28;;;;;;;23.56;61.64;100922.47;5027156;28;20108;-69
2021/08/09 09:58:20;;;;;;;0.08;0.03;;;;;;;23.44;59.37;100921.22;5020852;28;20041;-70
2021/08/09 10:00:46;;;;;;;0.38;0.28;;;;;;;23.53;58.86;100917.84;5018788;28;20037;-68
2021/08/09 10:03:13;;;;;;;0.43;0.20;;;;;;;22.83;60.84;100926.78;5029725;28;20482;-69
2021/08/09 10:05:41;;;;;;;0.20;0.20;;;;;;;22.59;61.73;100928.16;5018592;28;20029;-68
2021/08/09 10:08:14;;;;;;;0.30;0.30;;;;;;;22.52;63.86;100924.78;5031769;28;20040;-69
2021/08/09 10:10:48;;;;;;;0.10;0.10;;;;;;;22.82;63.44;100929.97;5036931;28;20048;-69
2021/08/09 10:13:17;;;;;;;0.20;0.20;;;;;;;22.99;62.91;100940.50;5029123;28;20037;-68
2021/08/09 10:15:42;;;;;;;0.20;0.20;;;;;;;22.59;63.04;100930.16;5031938;28;20037;-70
2021/08/09 10:18:08;;;;;;;0.43;0.28;;;;;;;22.37;63.13;100930.66;5029600;28;20087;-69
2021/08/09 10:20:34;;;;;;;0.20;0.20;;;;;;;22.61;63.70;100917.53;5032185;28;20067;-69
2021/08/09 10:23:05;;;;;;;0.28;0.20;;;;;;;23.19;62.59;100923.88;5014004;28;20029;-68
2021/08/09 10:25:54;;;;;;;0.55;0.20;;;;;;;23.41;60.52;100924.88;5032685;28;20050;-69
2021/08/09 10:28:19;;;;;;;0.38;0.30;;;;;;;23.43;60.36;100933.44;5029886;28;20033;-69
2021/08/09 10:30:45;;;;;;;0.73;0.20;;;;;;;23.41;60.93;100930.38;5031335;28;20604;-69
2021/08/09 10:33:11;;;;;;;0.55;0.35;;;;;;;23.92;59.05;100923.00;5029626;28;20038;-69
2021/08/09 10:35:39;;;;;;;0.80;0.80;;;;;;;24.07;60.70;100919.41;5030407;28;20068;-71
2021/08/09 10:38:16;;;;;;;1.02;0.77;;;;;;;23.87;58.95;100927.03;5030709;28;20034;-69
2021/08/09 10:40:46;;;;;;;0.22;0.22;;;;;;;23.85;59.61;100951.47;5030793;28;20064;-68
2021/08/09 10:43:12;;;;;;;0.20;0.20;;;;;;;23.37;59.03;100931.66;5022993;28;20549;-70
2021/08/09 10:45:43;;;;;;;0.45;0.20;;;;;;;23.68;59.42;100941.75;5015958;28;20804;-69
2021/08/09 10:48:09;;;;;;;0.20;0.20;;;;;;;23.82;58.76;100943.34;5022356;28;20444;-68
2021/08/09 10:50:39;;;;;;;0.60;0.13;;;;;;;23.68;57.30;100936.25;5029604;28;20021;-69
2021/08/09 10:53:24;;;;;;;0.10;0.10;;;;;;;23.89;58.51;100937.59;5026899;28;20390;-69
2021/08/09 10:55:51;;;;;;;0.10;0.10;;;;;;;23.38;59.32;100939.50;5029100;28;20048;-70
2021/08/09 10:58:42;;;;;;;0.22;0.22;;;;;;;22.94;58.34;100951.22;5031705;28;20398;-69
2021/08/09 11:01:08;;;;;;;0.13;0.10;;;;;;;22.80;59.54;100946.88;5028006;28;20026;-69
2021/08/09 11:03:34;;;;;;;0.10;0.10;;;;;;;23.23;60.30;100939.06;5026824;28;20053;-70
2021/08/09 11:06:38;;;;;;;0.38;0.20;;;;;;;23.14;58.52;100946.38;5016188;28;20517;-68
2021/08/09 11:09:31;;;;;;;0.20;0.20;;;;;;;23.12;59.19;100940.56;5023973;28;20087;-69
2021/08/09 11:12:09;;;;;;;0.20;0.20;;;;;;;22.92;58.62;100948.13;5031409;28;20057;-69
2021/08/09 11:15:12;;;;;;;0.10;0.10;;;;;;;23.19;58.42;100943.09;5024637;28;20030;-70
2021/08/09 11:17:37;;;;;;;0.17;0.17;;;;;;;23.37;58.59;100945.41;5028713;28;20033;-70
2021/08/09 11:20:17;;;;;;;0.10;0.10;;;;;;;23.29;56.66;100950.28;5005964;28;20030;-70
2021/08/09 11:22:46;;;;;;;0.17;0.17;;;;;;;22.98;57.15;100949.94;4998233;28;20806;-69
2021/08/09 11:25:44;;;;;;;0.28;0.20;;;;;;;23.56;58.08;100947.22;5024083;28;20026;-68
2021/08/09 11:28:11;;;;;;;0.08;0.08;;;;;;;23.56;58.12;100945.25;5009996;28;20033;-69